Capt Primeaux — WDI3600 — position and weather

sailwx.info

Track history (hours):
 
Tides and Currents Weather Stations Pressure Air Temp Water Temp Dewpoint Dewpoint Depression Visibility Wind Speed Wind Dir Waves Ship Positions

Capt Primeaux

Owner: Higman Barge Line, Inc., Orange, TX. More information available from US FCC via Universal Licensing System and Coast Guard Vessel Documentation Center.

Last reported at 2017-Sep-21 15:18 UTC. Time now 2017-Sep-24 06:55 UTC.
Position N 29°45' W 095°06'.

Length 26 m; draft 3 m.

Type: Towing. MMSI: 367690010.

Date/timePositionNaut miles runAvg speedWind from/ knotsBaromVisibWave heightAir tempDewpointWater temp
2017-Sep-21 15:18N 29°45' W 095°06'1 0.0
2017-Sep-20 10:41N 29°46' W 095°05'  
2017-Sep-17 13:02N 29°45' W 095°04'1 7.3
2017-Sep-17 12:58N 29°44' W 095°04'2 3.1
2017-Sep-17 12:21N 29°44' W 095°01'0 0.0
2017-Sep-17 11:36N 29°44' W 095°01'0 0.2
2017-Sep-17 11:11N 29°44' W 095°02'1 5.6
2017-Sep-17 11:00N 29°44' W 095°03'  
2017-Sep-15 04:09N 29°47' W 095°04'1 3.3
2017-Sep-15 03:54N 29°46' W 095°05'1 2.3
2017-Sep-15 03:30N 29°45' W 095°04'1 1.2
2017-Sep-15 02:49N 29°45' W 095°04'1 3.9
2017-Sep-15 02:29N 29°44' W 095°02'2 4.8
2017-Sep-15 02:00N 29°42' W 095°01'2 5.1
2017-Sep-15 01:31N 29°40' W 094°59'3 6.0
2017-Sep-15 01:01N 29°38' W 094°58'3 6.2
2017-Sep-15 00:31N 29°35' W 094°56'3 6.3
2017-Sep-15 00:00N 29°32' W 094°54'  
Track history (hours):
 
Tides and Currents Weather Stations Pressure Air Temp Water Temp Dewpoint Dewpoint Depression Visibility Wind Speed Wind Dir Waves Ship Positions

Capt Primeaux

Owner: Higman Barge Line, Inc., Orange, TX. More information available from US FCC via Universal Licensing System and Coast Guard Vessel Documentation Center.

Last reported at 2017-Sep-21 15:18 UTC. Time now 2017-Sep-24 06:55 UTC.
Position N 29°45' W 095°06'.

Length 26 m; draft 3 m.

Type: Towing. MMSI: 367690010.

Date/timePositionNaut miles runAvg speedWind from/ knotsBaromVisibWave heightAir tempDewpointWater temp
2017-Sep-21 15:18N 29°45' W 095°06'1 0.0
2017-Sep-20 10:41N 29°46' W 095°05'  
2017-Sep-17 13:02N 29°45' W 095°04'1 7.3
2017-Sep-17 12:58N 29°44' W 095°04'2 3.1
2017-Sep-17 12:21N 29°44' W 095°01'0 0.0
2017-Sep-17 11:36N 29°44' W 095°01'0 0.2
2017-Sep-17 11:11N 29°44' W 095°02'1 5.6
2017-Sep-17 11:00N 29°44' W 095°03'  
2017-Sep-15 04:09N 29°47' W 095°04'1 3.3
2017-Sep-15 03:54N 29°46' W 095°05'1 2.3
2017-Sep-15 03:30N 29°45' W 095°04'1 1.2
2017-Sep-15 02:49N 29°45' W 095°04'1 3.9
2017-Sep-15 02:29N 29°44' W 095°02'2 4.8
2017-Sep-15 02:00N 29°42' W 095°01'2 5.1
2017-Sep-15 01:31N 29°40' W 094°59'3 6.0
2017-Sep-15 01:01N 29°38' W 094°58'3 6.2
2017-Sep-15 00:31N 29°35' W 094°56'3 6.3
2017-Sep-15 00:00N 29°32' W 094°54'  

Dump ship's entire track history